sensor_id;sensor_type;location;lat;lon;timestamp;pressure;altitude;pressure_sealevel;temperature;humidity
34454;BME280;60061;52.080;5.312;2023-12-20T00:01:32;101536.0;;;5.71;100.0
34454;BME280;60061;52.080;5.312;2023-12-20T00:03:08;101537.0;;;5.67;100.0
34454;BME280;60061;52.080;5.312;2023-12-20T00:04:44;101528.0;;;5.65;100.0
34454;BME280;60061;52.080;5.312;2023-12-20T00:07:56;101520.0;;;5.56;100.0
34454;BME280;60061;52.080;5.312;2023-12-20T00:09:32;101519.0;;;5.5;100.0
34454;BME280;60061;52.080;5.312;2023-12-20T00:11:08;101522.0;;;5.49;100.0
34454;BME280;60061;52.080;5.312;2023-12-20T00:14:20;101516.0;;;5.46;100.0
34454;BME280;60061;52.080;5.312;2023-12-20T00:15:56;101513.0;;;5.44;100.0
34454;BME280;60061;52.080;5.312;2023-12-20T00:17:33;101515.0;;;5.42;100.0
34454;BME280;60061;52.080;5.312;2023-12-20T00:20:45;101518.0;;;5.37;100.0
34454;BME280;60061;52.080;5.312;2023-12-20T00:22:21;101520.0;;;5.31;100.0
34454;BME280;60061;52.080;5.312;2023-12-20T00:23:57;101517.0;;;5.23;100.0
34454;BME280;60061;52.080;5.312;2023-12-20T00:25:33;101519.0;;;5.21;100.0
34454;BME280;60061;52.080;5.312;2023-12-20T00:28:45;101511.0;;;5.18;100.0
34454;BME280;60061;52.080;5.312;2023-12-20T00:30:21;101510.0;;;5.18;100.0
34454;BME280;60061;52.080;5.312;2023-12-20T00:31:57;101514.0;;;5.15;100.0
34454;BME280;60061;52.080;5.312;2023-12-20T00:35:10;101514.0;;;5.13;100.0
34454;BME280;60061;52.080;5.312;2023-12-20T00:36:46;101527.0;;;5.12;100.0
34454;BME280;60061;52.080;5.312;2023-12-20T00:38:22;101530.0;;;5.07;100.0
34454;BME280;60061;52.080;5.312;2023-12-20T00:41:37;101526.0;;;5.13;100.0
34454;BME280;60061;52.080;5.312;2023-12-20T00:43:13;101531.0;;;5.08;100.0
34454;BME280;60061;52.080;5.312;2023-12-20T00:44:49;101522.0;;;5.07;100.0
34454;BME280;60061;52.080;5.312;2023-12-20T00:48:02;101520.0;;;5.05;100.0
34454;BME280;60061;52.080;5.312;2023-12-20T00:49:37;101516.0;;;5.03;100.0
34454;BME280;60061;52.080;5.312;2023-12-20T00:51:13;101512.0;;;4.89;100.0
34454;BME280;60061;52.080;5.312;2023-12-20T00:52:50;101518.0;;;4.86;100.0
34454;BME280;60061;52.080;5.312;2023-12-20T00:56:02;101510.0;;;4.75;100.0
34454;BME280;60061;52.080;5.312;2023-12-20T00:57:38;101516.0;;;4.78;100.0
34454;BME280;60061;52.080;5.312;2023-12-20T00:59:15;101520.0;;;4.87;100.0
34454;BME280;60061;52.080;5.312;2023-12-20T01:02:28;101515.0;;;4.88;100.0
34454;BME280;60061;52.080;5.312;2023-12-20T01:04:04;101515.0;;;4.87;100.0
34454;BME280;60061;52.080;5.312;2023-12-20T01:05:40;101514.0;;;4.87;100.0
34454;BME280;60061;52.080;5.312;2023-12-20T01:08:53;101506.0;;;4.78;100.0
34454;BME280;60061;52.080;5.312;2023-12-20T01:10:29;101502.0;;;4.78;100.0
34454;BME280;60061;52.080;5.312;2023-12-20T01:12:05;101501.0;;;4.74;100.0
34454;BME280;60061;52.080;5.312;2023-12-20T01:13:41;101505.0;;;4.7;100.0
34454;BME280;60061;52.080;5.312;2023-12-20T01:16:54;101512.0;;;4.68;100.0
34454;BME280;60061;52.080;5.312;2023-12-20T01:18:30;101514.0;;;4.79;100.0
34454;BME280;60061;52.080;5.312;2023-12-20T01:20:07;101510.0;;;4.72;100.0
34454;BME280;60061;52.080;5.312;2023-12-20T01:23:19;101514.0;;;4.75;100.0
34454;BME280;60061;52.080;5.312;2023-12-20T01:24:55;101514.0;;;4.75;100.0
34454;BME280;60061;52.080;5.312;2023-12-20T01:26:32;101523.0;;;4.76;100.0
34454;BME280;60061;52.080;5.312;2023-12-20T01:29:44;101523.0;;;4.75;100.0
34454;BME280;60061;52.080;5.312;2023-12-20T01:31:20;101517.0;;;4.68;100.0
34454;BME280;60061;52.080;5.312;2023-12-20T01:32:56;101513.0;;;4.67;100.0
34454;BME280;60061;52.080;5.312;2023-12-20T01:36:08;101518.0;;;4.7;100.0
34454;BME280;60061;52.080;5.312;2023-12-20T01:37:44;101517.0;;;4.72;100.0
34454;BME280;60061;52.080;5.312;2023-12-20T01:39:20;101521.0;;;4.74;100.0
34454;BME280;60061;52.080;5.312;2023-12-20T01:40:57;101517.0;;;4.92;100.0
34454;BME280;60061;52.080;5.312;2023-12-20T01:44:09;101516.0;;;4.91;100.0
34454;BME280;60061;52.080;5.312;2023-12-20T01:45:45;101515.0;;;4.93;100.0
34454;BME280;60061;52.080;5.312;2023-12-20T01:47:22;101519.0;;;4.97;100.0
34454;BME280;60061;52.080;5.312;2023-12-20T01:50:35;101515.0;;;4.97;100.0
34454;BME280;60061;52.080;5.312;2023-12-20T01:52:13;101516.0;;;5.0;100.0
34454;BME280;60061;52.080;5.312;2023-12-20T01:53:48;101508.0;;;5.03;100.0
34454;BME280;60061;52.080;5.312;2023-12-20T01:57:04;101510.0;;;5.08;100.0
34454;BME280;60061;52.080;5.312;2023-12-20T01:58:43;101514.0;;;5.07;100.0
34454;BME280;60061;52.080;5.312;2023-12-20T02:00:25;101515.0;;;5.03;100.0
34454;BME280;60061;52.080;5.312;2023-12-20T02:02:03;101515.0;;;5.07;100.0
34454;BME280;60061;52.080;5.312;2023-12-20T02:05:16;101508.0;;;5.12;100.0
34454;BME280;60061;52.080;5.312;2023-12-20T02:06:55;101505.0;;;5.11;100.0
34454;BME280;60061;52.080;5.312;2023-12-20T02:08:31;101512.0;;;5.12;100.0
34454;BME280;60061;52.080;5.312;2023-12-20T02:11:43;101511.0;;;5.11;100.0
34454;BME280;60061;52.080;5.312;2023-12-20T02:13:19;101501.0;;;5.08;100.0
34454;BME280;60061;52.080;5.312;2023-12-20T02:14:56;101510.0;;;5.03;100.0
34454;BME280;60061;52.080;5.312;2023-12-20T02:16:32;101515.0;;;5.07;100.0
34454;BME280;60061;52.080;5.312;2023-12-20T02:19:44;101505.0;;;5.12;100.0
34454;BME280;60061;52.080;5.312;2023-12-20T02:21:24;101510.0;;;5.12;100.0
34454;BME280;60061;52.080;5.312;2023-12-20T02:23:03;101506.0;;;5.21;100.0
34454;BME280;60061;52.080;5.312;2023-12-20T02:26:16;101501.0;;;5.23;100.0
34454;BME280;60061;52.080;5.312;2023-12-20T02:27:52;101494.0;;;5.34;100.0
34454;BME280;60061;52.080;5.312;2023-12-20T02:29:29;101498.0;;;5.34;100.0
34454;BME280;60061;52.080;5.312;2023-12-20T02:31:05;101498.0;;;5.42;100.0
34454;BME280;60061;52.080;5.312;2023-12-20T02:34:17;101491.0;;;5.38;100.0
34454;BME280;60061;52.080;5.312;2023-12-20T02:35:53;101493.0;;;5.48;100.0
34454;BME280;60061;52.080;5.312;2023-12-20T02:37:29;101491.0;;;5.44;100.0
34454;BME280;60061;52.080;5.312;2023-12-20T02:40:41;101500.0;;;5.45;100.0
34454;BME280;60061;52.080;5.312;2023-12-20T02:42:17;101490.0;;;5.43;100.0
34454;BME280;60061;52.080;5.312;2023-12-20T02:43:53;101486.0;;;5.5;100.0
34454;BME280;60061;52.080;5.312;2023-12-20T02:47:06;101480.0;;;5.48;100.0
34454;BME280;60061;52.080;5.312;2023-12-20T02:48:42;101484.0;;;5.41;100.0
34454;BME280;60061;52.080;5.312;2023-12-20T02:50:18;101483.0;;;5.51;100.0
34454;BME280;60061;52.080;5.312;2023-12-20T02:53:30;101487.0;;;5.56;100.0
34454;BME280;60061;52.080;5.312;2023-12-20T02:55:06;101485.0;;;5.51;100.0
34454;BME280;60061;52.080;5.312;2023-12-20T02:56:45;101481.0;;;5.58;100.0
34454;BME280;60061;52.080;5.312;2023-12-20T02:58:22;101471.0;;;5.56;100.0
34454;BME280;60061;52.080;5.312;2023-12-20T03:01:35;101466.0;;;5.57;100.0
34454;BME280;60061;52.080;5.312;2023-12-20T03:03:11;101460.0;;;5.69;100.0
34454;BME280;60061;52.080;5.312;2023-12-20T03:04:47;101456.0;;;5.69;100.0
34454;BME280;60061;52.080;5.312;2023-12-20T03:08:04;101446.0;;;5.66;100.0
34454;BME280;60061;52.080;5.312;2023-12-20T03:09:40;101445.0;;;5.7;100.0
34454;BME280;60061;52.080;5.312;2023-12-20T03:11:16;101455.0;;;5.69;100.0
34454;BME280;60061;52.080;5.312;2023-12-20T03:14:28;101455.0;;;5.66;100.0
34454;BME280;60061;52.080;5.312;2023-12-20T03:16:08;101458.0;;;5.73;100.0
34454;BME280;60061;52.080;5.312;2023-12-20T03:17:44;101458.0;;;5.88;100.0
34454;BME280;60061;52.080;5.312;2023-12-20T03:19:21;101464.0;;;5.8;100.0
34454;BME280;60061;52.080;5.312;2023-12-20T03:22:33;101466.0;;;5.74;100.0
34454;BME280;60061;52.080;5.312;2023-12-20T03:24:09;101455.0;;;5.77;100.0
34454;BME280;60061;52.080;5.312;2023-12-20T03:25:45;101457.0;;;5.89;100.0
34454;BME280;60061;52.080;5.312;2023-12-20T03:28:57;101453.0;;;5.91;100.0
34454;BME280;60061;52.080;5.312;2023-12-20T03:30:36;101456.0;;;5.87;100.0
34454;BME280;60061;52.080;5.312;2023-12-20T03:32:12;101452.0;;;5.89;100.0
34454;BME280;60061;52.080;5.312;2023-12-20T03:35:24;101449.0;;;5.89;100.0
34454;BME280;60061;52.080;5.312;2023-12-20T03:37:01;101452.0;;;5.85;100.0
34454;BME280;60061;52.080;5.312;2023-12-20T03:38:37;101447.0;;;5.85;100.0
34454;BME280;60061;52.080;5.312;2023-12-20T03:40:13;101451.0;;;5.88;100.0
34454;BME280;60061;52.080;5.312;2023-12-20T03:43:25;101440.0;;;5.93;100.0
34454;BME280;60061;52.080;5.312;2023-12-20T03:45:01;101450.0;;;6.07;100.0
34454;BME280;60061;52.080;5.312;2023-12-20T03:46:37;101449.0;;;6.04;100.0
34454;BME280;60061;52.080;5.312;2023-12-20T03:49:49;101455.0;;;6.0;100.0
34454;BME280;60061;52.080;5.312;2023-12-20T03:51:25;101455.0;;;5.96;100.0
34454;BME280;60061;52.080;5.312;2023-12-20T03:53:05;101456.0;;;5.96;100.0
34454;BME280;60061;52.080;5.312;2023-12-20T03:56:17;101462.0;;;6.13;100.0
34454;BME280;60061;52.080;5.312;2023-12-20T03:57:53;101452.0;;;6.06;100.0
34454;BME280;60061;52.080;5.312;2023-12-20T03:59:29;101456.0;;;6.14;100.0
34454;BME280;60061;52.080;5.312;2023-12-20T04:01:09;101458.0;;;6.08;100.0
34454;BME280;60061;52.080;5.312;2023-12-20T04:04:21;101461.0;;;6.02;100.0
34454;BME280;60061;52.080;5.312;2023-12-20T04:05:57;101461.0;;;6.06;100.0
34454;BME280;60061;52.080;5.312;2023-12-20T04:07:34;101455.0;;;6.04;100.0
34454;BME280;60061;52.080;5.312;2023-12-20T04:10:47;101462.0;;;6.04;100.0
34454;BME280;60061;52.080;5.312;2023-12-20T04:12:24;101456.0;;;6.08;100.0
34454;BME280;60061;52.080;5.312;2023-12-20T04:14:00;101456.0;;;6.09;100.0
34454;BME280;60061;52.080;5.312;2023-12-20T04:17:12;101455.0;;;6.06;100.0
34454;BME280;60061;52.080;5.312;2023-12-20T04:18:50;101449.0;;;6.05;100.0
34454;BME280;60061;52.080;5.312;2023-12-20T04:20:26;101452.0;;;6.18;100.0
34454;BME280;60061;52.080;5.312;2023-12-20T04:22:02;101444.0;;;6.14;100.0
34454;BME280;60061;52.080;5.312;2023-12-20T04:25:14;101439.0;;;6.18;100.0
34454;BME280;60061;52.080;5.312;2023-12-20T04:26:50;101442.0;;;6.24;100.0
34454;BME280;60061;52.080;5.312;2023-12-20T04:28:27;101439.0;;;6.24;100.0
34454;BME280;60061;52.080;5.312;2023-12-20T04:31:40;101444.0;;;6.24;100.0
34454;BME280;60061;52.080;5.312;2023-12-20T04:33:16;101448.0;;;6.11;100.0
34454;BME280;60061;52.080;5.312;2023-12-20T04:34:52;101445.0;;;6.05;100.0
34454;BME280;60061;52.080;5.312;2023-12-20T04:38:04;101446.0;;;6.03;100.0
34454;BME280;60061;52.080;5.312;2023-12-20T04:39:40;101453.0;;;6.1;100.0
34454;BME280;60061;52.080;5.312;2023-12-20T04:41:16;101449.0;;;6.03;100.0
34454;BME280;60061;52.080;5.312;2023-12-20T04:42:52;101446.0;;;6.04;100.0
34454;BME280;60061;52.080;5.312;2023-12-20T04:46:05;101438.0;;;6.01;100.0
34454;BME280;60061;52.080;5.312;2023-12-20T04:47:41;101447.0;;;6.01;100.0
34454;BME280;60061;52.080;5.312;2023-12-20T04:49:18;101437.0;;;5.92;100.0
34454;BME280;60061;52.080;5.312;2023-12-20T04:52:30;101439.0;;;5.93;100.0
34454;BME280;60061;52.080;5.312;2023-12-20T04:54:06;101438.0;;;5.95;100.0
34454;BME280;60061;52.080;5.312;2023-12-20T04:55:43;101430.0;;;5.88;100.0
34454;BME280;60061;52.080;5.312;2023-12-20T04:58:55;101438.0;;;5.99;100.0
34454;BME280;60061;52.080;5.312;2023-12-20T05:00:31;101430.0;;;6.13;100.0
34454;BME280;60061;52.080;5.312;2023-12-20T05:02:07;101425.0;;;5.98;100.0
34454;BME280;60061;52.080;5.312;2023-12-20T05:05:20;101424.0;;;6.0;100.0
34454;BME280;60061;52.080;5.312;2023-12-20T05:06:56;101426.0;;;6.07;100.0
34454;BME280;60061;52.080;5.312;2023-12-20T05:08:32;101414.0;;;6.18;100.0
34454;BME280;60061;52.080;5.312;2023-12-20T05:10:09;101410.0;;;6.07;100.0
34454;BME280;60061;52.080;5.312;2023-12-20T05:13:21;101421.0;;;6.17;100.0
34454;BME280;60061;52.080;5.312;2023-12-20T05:14:58;101424.0;;;6.2;100.0
34454;BME280;60061;52.080;5.312;2023-12-20T05:16:34;101421.0;;;6.18;100.0
34454;BME280;60061;52.080;5.312;2023-12-20T05:19:47;101426.0;;;6.22;100.0
34454;BME280;60061;52.080;5.312;2023-12-20T05:21:23;101424.0;;;6.24;100.0
34454;BME280;60061;52.080;5.312;2023-12-20T05:23:02;101427.0;;;6.18;100.0
34454;BME280;60061;52.080;5.312;2023-12-20T05:26:14;101423.0;;;6.18;100.0
34454;BME280;60061;52.080;5.312;2023-12-20T05:27:50;101430.0;;;6.19;100.0
34454;BME280;60061;52.080;5.312;2023-12-20T05:29:26;101428.0;;;6.41;100.0
34454;BME280;60061;52.080;5.312;2023-12-20T05:31:03;101423.0;;;6.4;100.0
34454;BME280;60061;52.080;5.312;2023-12-20T05:34:14;101423.0;;;6.23;100.0
34454;BME280;60061;52.080;5.312;2023-12-20T05:35:50;101423.0;;;6.25;100.0
34454;BME280;60061;52.080;5.312;2023-12-20T05:37:26;101430.0;;;6.49;100.0
34454;BME280;60061;52.080;5.312;2023-12-20T05:40:39;101427.0;;;6.43;100.0
34454;BME280;60061;52.080;5.312;2023-12-20T05:42:15;101434.0;;;6.57;100.0
34454;BME280;60061;52.080;5.312;2023-12-20T05:43:51;101430.0;;;6.36;100.0
34454;BME280;60061;52.080;5.312;2023-12-20T05:47:04;101439.0;;;6.46;100.0
34454;BME280;60061;52.080;5.312;2023-12-20T05:48:39;101434.0;;;6.43;100.0
34454;BME280;60061;52.080;5.312;2023-12-20T05:50:15;101431.0;;;6.48;100.0
34454;BME280;60061;52.080;5.312;2023-12-20T05:53:28;101437.0;;;6.47;100.0
34454;BME280;60061;52.080;5.312;2023-12-20T05:55:04;101426.0;;;6.56;100.0
34454;BME280;60061;52.080;5.312;2023-12-20T05:56:40;101438.0;;;6.55;100.0
34454;BME280;60061;52.080;5.312;2023-12-20T05:58:16;101441.0;;;6.57;100.0
34454;BME280;60061;52.080;5.312;2023-12-20T06:01:28;101430.0;;;6.6;100.0
34454;BME280;60061;52.080;5.312;2023-12-20T06:03:04;101430.0;;;6.59;100.0
34454;BME280;60061;52.080;5.312;2023-12-20T06:04:42;101431.0;;;6.74;100.0
34454;BME280;60061;52.080;5.312;2023-12-20T06:07:53;101430.0;;;6.76;100.0
34454;BME280;60061;52.080;5.312;2023-12-20T06:09:29;101427.0;;;6.77;100.0
34454;BME280;60061;52.080;5.312;2023-12-20T06:11:06;101432.0;;;6.7;100.0
34454;BME280;60061;52.080;5.312;2023-12-20T06:14:18;101426.0;;;6.74;100.0
34454;BME280;60061;52.080;5.312;2023-12-20T06:15:54;101422.0;;;6.59;100.0
34454;BME280;60061;52.080;5.312;2023-12-20T06:17:30;101426.0;;;6.61;100.0
34454;BME280;60061;52.080;5.312;2023-12-20T06:19:09;101419.0;;;6.6;100.0
34454;BME280;60061;52.080;5.312;2023-12-20T06:22:21;101421.0;;;6.54;100.0
34454;BME280;60061;52.080;5.312;2023-12-20T06:23:58;101424.0;;;6.46;100.0
34454;BME280;60061;52.080;5.312;2023-12-20T06:25:34;101421.0;;;6.5;100.0
34454;BME280;60061;52.080;5.312;2023-12-20T06:28:47;101423.0;;;6.54;100.0
34454;BME280;60061;52.080;5.312;2023-12-20T06:30:23;101427.0;;;6.66;100.0
34454;BME280;60061;52.080;5.312;2023-12-20T06:31:59;101430.0;;;6.75;100.0
34454;BME280;60061;52.080;5.312;2023-12-20T06:35:12;101426.0;;;6.75;100.0
34454;BME280;60061;52.080;5.312;2023-12-20T06:36:48;101426.0;;;6.75;100.0
34454;BME280;60061;52.080;5.312;2023-12-20T06:38:24;101419.0;;;6.78;100.0
34454;BME280;60061;52.080;5.312;2023-12-20T06:41:40;101430.0;;;6.68;100.0
34454;BME280;60061;52.080;5.312;2023-12-20T06:43:16;101418.0;;;6.71;100.0
34454;BME280;60061;52.080;5.312;2023-12-20T06:44:52;101418.0;;;6.74;100.0
34454;BME280;60061;52.080;5.312;2023-12-20T06:46:28;101415.0;;;6.71;100.0
34454;BME280;60061;52.080;5.312;2023-12-20T06:49:41;101411.0;;;6.64;100.0
34454;BME280;60061;52.080;5.312;2023-12-20T06:51:17;101411.0;;;6.63;100.0
34454;BME280;60061;52.080;5.312;2023-12-20T06:52:56;101413.0;;;6.63;100.0
34454;BME280;60061;52.080;5.312;2023-12-20T06:56:10;101415.0;;;6.58;100.0
34454;BME280;60061;52.080;5.312;2023-12-20T06:57:46;101412.0;;;6.63;100.0
34454;BME280;60061;52.080;5.312;2023-12-20T06:59:22;101420.0;;;6.67;100.0
34454;BME280;60061;52.080;5.312;2023-12-20T07:00:59;101419.0;;;6.67;100.0
34454;BME280;60061;52.080;5.312;2023-12-20T07:04:14;101416.0;;;6.66;100.0
34454;BME280;60061;52.080;5.312;2023-12-20T07:05:50;101413.0;;;6.66;100.0
34454;BME280;60061;52.080;5.312;2023-12-20T07:07:26;101405.0;;;6.59;100.0
34454;BME280;60061;52.080;5.312;2023-12-20T07:10:38;101407.0;;;6.6;100.0
34454;BME280;60061;52.080;5.312;2023-12-20T07:12:14;101407.0;;;6.57;100.0
34454;BME280;60061;52.080;5.312;2023-12-20T07:13:50;101405.0;;;6.64;100.0
34454;BME280;60061;52.080;5.312;2023-12-20T07:17:06;101408.0;;;6.69;100.0
34454;BME280;60061;52.080;5.312;2023-12-20T07:18:42;101395.0;;;6.76;100.0
34454;BME280;60061;52.080;5.312;2023-12-20T07:20:18;101406.0;;;6.87;100.0
34454;BME280;60061;52.080;5.312;2023-12-20T07:21:54;101400.0;;;6.84;100.0
34454;BME280;60061;52.080;5.312;2023-12-20T07:25:07;101393.0;;;6.69;100.0
34454;BME280;60061;52.080;5.312;2023-12-20T07:26:46;101389.0;;;6.71;100.0
34454;BME280;60061;52.080;5.312;2023-12-20T07:28:22;101395.0;;;6.7;100.0
34454;BME280;60061;52.080;5.312;2023-12-20T07:31:34;101397.0;;;6.83;100.0
34454;BME280;60061;52.080;5.312;2023-12-20T07:33:10;101393.0;;;6.91;100.0
34454;BME280;60061;52.080;5.312;2023-12-20T07:34:47;101389.0;;;6.84;100.0
34454;BME280;60061;52.080;5.312;2023-12-20T07:38:02;101390.0;;;6.8;100.0
34454;BME280;60061;52.080;5.312;2023-12-20T07:39:39;101388.0;;;6.67;100.0
34454;BME280;60061;52.080;5.312;2023-12-20T07:41:15;101392.0;;;6.58;100.0
34454;BME280;60061;52.080;5.312;2023-12-20T07:42:51;101388.0;;;6.66;100.0
34454;BME280;60061;52.080;5.312;2023-12-20T07:46:04;101395.0;;;6.67;100.0
34454;BME280;60061;52.080;5.312;2023-12-20T07:47:40;101394.0;;;6.73;100.0
34454;BME280;60061;52.080;5.312;2023-12-20T07:49:16;101392.0;;;6.71;100.0
34454;BME280;60061;52.080;5.312;2023-12-20T07:52:29;101394.0;;;6.59;100.0
34454;BME280;60061;52.080;5.312;2023-12-20T07:54:05;101405.0;;;6.71;100.0
34454;BME280;60061;52.080;5.312;2023-12-20T07:55:41;101405.0;;;6.71;100.0
34454;BME280;60061;52.080;5.312;2023-12-20T07:58:53;101409.0;;;6.72;100.0
34454;BME280;60061;52.080;5.312;2023-12-20T08:00:29;101415.0;;;6.82;100.0
34454;BME280;60061;52.080;5.312;2023-12-20T08:02:05;101418.0;;;6.82;100.0
34454;BME280;60061;52.080;5.312;2023-12-20T08:05:18;101417.0;;;6.78;100.0
34454;BME280;60061;52.080;5.312;2023-12-20T08:06:54;101426.0;;;6.85;100.0
34454;BME280;60061;52.080;5.312;2023-12-20T08:08:30;101424.0;;;6.96;100.0
34454;BME280;60061;52.080;5.312;2023-12-20T08:10:07;101426.0;;;6.89;100.0
34454;BME280;60061;52.080;5.312;2023-12-20T08:13:21;101423.0;;;6.92;100.0
34454;BME280;60061;52.080;5.312;2023-12-20T08:14:57;101417.0;;;7.1;100.0
34454;BME280;60061;52.080;5.312;2023-12-20T08:16:33;101419.0;;;7.06;100.0
34454;BME280;60061;52.080;5.312;2023-12-20T08:19:45;101422.0;;;6.9;100.0
34454;BME280;60061;52.080;5.312;2023-12-20T08:21:21;101424.0;;;6.85;100.0
34454;BME280;60061;52.080;5.312;2023-12-20T08:22:58;101417.0;;;6.94;100.0
34454;BME280;60061;52.080;5.312;2023-12-20T08:26:10;101421.0;;;6.95;100.0
34454;BME280;60061;52.080;5.312;2023-12-20T08:27:46;101412.0;;;6.99;100.0
34454;BME280;60061;52.080;5.312;2023-12-20T08:29:22;101406.0;;;6.93;100.0
34454;BME280;60061;52.080;5.312;2023-12-20T08:30:58;101411.0;;;6.89;100.0
34454;BME280;60061;52.080;5.312;2023-12-20T08:34:13;101412.0;;;6.97;100.0
34454;BME280;60061;52.080;5.312;2023-12-20T08:35:49;101406.0;;;6.97;100.0
34454;BME280;60061;52.080;5.312;2023-12-20T08:37:25;101410.0;;;7.0;100.0
34454;BME280;60061;52.080;5.312;2023-12-20T08:40:38;101408.0;;;6.98;100.0
34454;BME280;60061;52.080;5.312;2023-12-20T08:42:14;101408.0;;;7.0;100.0
34454;BME280;60061;52.080;5.312;2023-12-20T08:43:50;101401.0;;;6.94;100.0
34454;BME280;60061;52.080;5.312;2023-12-20T08:47:02;101405.0;;;6.93;100.0
34454;BME280;60061;52.080;5.312;2023-12-20T08:48:39;101410.0;;;6.88;100.0
34454;BME280;60061;52.080;5.312;2023-12-20T08:50:15;101401.0;;;6.85;100.0
34454;BME280;60061;52.080;5.312;2023-12-20T08:51:51;101410.0;;;6.91;100.0
34454;BME280;60061;52.080;5.312;2023-12-20T08:55:04;101407.0;;;6.93;100.0
34454;BME280;60061;52.080;5.312;2023-12-20T08:56:41;101405.0;;;6.95;100.0
34454;BME280;60061;52.080;5.312;2023-12-20T08:58:17;101410.0;;;7.0;100.0
34454;BME280;60061;52.080;5.312;2023-12-20T09:01:29;101409.0;;;7.06;100.0
34454;BME280;60061;52.080;5.312;2023-12-20T09:03:05;101407.0;;;7.04;100.0
34454;BME280;60061;52.080;5.312;2023-12-20T09:04:41;101397.0;;;7.14;100.0
34454;BME280;60061;52.080;5.312;2023-12-20T09:07:54;101394.0;;;7.14;100.0
34454;BME280;60061;52.080;5.312;2023-12-20T09:09:30;101400.0;;;7.12;100.0
34454;BME280;60061;52.080;5.312;2023-12-20T09:11:07;101403.0;;;7.21;100.0
34454;BME280;60061;52.080;5.312;2023-12-20T09:14:19;101395.0;;;7.24;100.0
34454;BME280;60061;52.080;5.312;2023-12-20T09:15:55;101394.0;;;7.14;100.0
34454;BME280;60061;52.080;5.312;2023-12-20T09:17:31;101408.0;;;7.19;100.0
34454;BME280;60061;52.080;5.312;2023-12-20T09:19:10;101411.0;;;7.21;100.0
34454;BME280;60061;52.080;5.312;2023-12-20T09:22:22;101406.0;;;7.17;100.0
34454;BME280;60061;52.080;5.312;2023-12-20T09:23:58;101405.0;;;7.22;100.0
34454;BME280;60061;52.080;5.312;2023-12-20T09:25:34;101398.0;;;7.26;100.0
34454;BME280;60061;52.080;5.312;2023-12-20T09:28:47;101394.0;;;7.18;100.0
34454;BME280;60061;52.080;5.312;2023-12-20T09:30:23;101405.0;;;7.38;100.0
34454;BME280;60061;52.080;5.312;2023-12-20T09:31:59;101399.0;;;7.47;100.0
34454;BME280;60061;52.080;5.312;2023-12-20T09:35:12;101397.0;;;7.44;100.0
34454;BME280;60061;52.080;5.312;2023-12-20T09:36:48;101399.0;;;7.49;100.0
34454;BME280;60061;52.080;5.312;2023-12-20T09:38:24;101393.0;;;7.66;100.0
34454;BME280;60061;52.080;5.312;2023-12-20T09:40:00;101396.0;;;7.56;100.0
34454;BME280;60061;52.080;5.312;2023-12-20T09:43:20;101400.0;;;7.6;100.0
34454;BME280;60061;52.080;5.312;2023-12-20T09:45:02;101400.0;;;7.57;100.0
34454;BME280;60061;52.080;5.312;2023-12-20T09:46:39;101413.0;;;7.52;100.0
34454;BME280;60061;52.080;5.312;2023-12-20T09:48:19;101405.0;;;7.46;100.0
34454;BME280;60061;52.080;5.312;2023-12-20T09:51:32;101418.0;;;7.59;100.0
34454;BME280;60061;52.080;5.312;2023-12-20T09:53:15;101408.0;;;7.74;100.0
34454;BME280;60061;52.080;5.312;2023-12-20T09:54:53;101410.0;;;7.72;100.0
34454;BME280;60061;52.080;5.312;2023-12-20T09:58:08;101405.0;;;7.82;100.0
34454;BME280;60061;52.080;5.312;2023-12-20T09:59:44;101405.0;;;7.87;100.0
34454;BME280;60061;52.080;5.312;2023-12-20T10:01:21;101398.0;;;7.85;100.0
34454;BME280;60061;52.080;5.312;2023-12-20T10:02:59;101403.0;;;7.94;100.0
34454;BME280;60061;52.080;5.312;2023-12-20T10:06:12;101416.0;;;7.85;100.0
34454;BME280;60061;52.080;5.312;2023-12-20T10:07:48;101424.0;;;7.95;100.0
34454;BME280;60061;52.080;5.312;2023-12-20T10:09:24;101418.0;;;7.91;100.0
34454;BME280;60061;52.080;5.312;2023-12-20T10:12:36;101416.0;;;7.75;100.0
34454;BME280;60061;52.080;5.312;2023-12-20T10:14:12;101419.0;;;7.79;100.0
34454;BME280;60061;52.080;5.312;2023-12-20T10:15:51;101421.0;;;7.94;100.0
34454;BME280;60061;52.080;5.312;2023-12-20T10:19:04;101416.0;;;7.99;100.0
34454;BME280;60061;52.080;5.312;2023-12-20T10:20:41;101419.0;;;7.88;100.0
34454;BME280;60061;52.080;5.312;2023-12-20T10:22:17;101408.0;;;7.89;100.0
34454;BME280;60061;52.080;5.312;2023-12-20T10:23:53;101420.0;;;7.81;100.0
34454;BME280;60061;52.080;5.312;2023-12-20T10:27:08;101415.0;;;7.8;100.0
34454;BME280;60061;52.080;5.312;2023-12-20T10:28:44;101410.0;;;7.88;100.0
34454;BME280;60061;52.080;5.312;2023-12-20T10:30:20;101410.0;;;8.09;100.0
34454;BME280;60061;52.080;5.312;2023-12-20T10:33:32;101398.0;;;8.18;100.0
34454;BME280;60061;52.080;5.312;2023-12-20T10:35:09;101411.0;;;8.14;100.0
34454;BME280;60061;52.080;5.312;2023-12-20T10:36:45;101413.0;;;8.26;100.0
34454;BME280;60061;52.080;5.312;2023-12-20T10:39:59;101411.0;;;8.23;100.0
34454;BME280;60061;52.080;5.312;2023-12-20T10:41:38;101408.0;;;8.36;100.0
34454;BME280;60061;52.080;5.312;2023-12-20T10:43:15;101403.0;;;8.4;100.0
34454;BME280;60061;52.080;5.312;2023-12-20T10:44:51;101392.0;;;8.41;100.0
34454;BME280;60061;52.080;5.312;2023-12-20T10:48:07;101388.0;;;8.34;100.0
34454;BME280;60061;52.080;5.312;2023-12-20T10:49:44;101398.0;;;8.31;100.0
34454;BME280;60061;52.080;5.312;2023-12-20T10:51:21;101395.0;;;8.33;100.0
34454;BME280;60061;52.080;5.312;2023-12-20T10:54:35;101389.0;;;8.43;100.0
34454;BME280;60061;52.080;5.312;2023-12-20T10:56:14;101384.0;;;8.38;100.0
34454;BME280;60061;52.080;5.312;2023-12-20T10:57:52;101391.0;;;8.34;100.0
34454;BME280;60061;52.080;5.312;2023-12-20T10:59:29;101380.0;;;8.35;100.0
34454;BME280;60061;52.080;5.312;2023-12-20T11:02:50;101375.0;;;8.47;100.0
34454;BME280;60061;52.080;5.312;2023-12-20T11:04:34;101369.0;;;8.53;100.0
34454;BME280;60061;52.080;5.312;2023-12-20T11:06:25;101368.0;;;8.59;100.0
34454;BME280;60061;52.080;5.312;2023-12-20T11:08:09;101365.0;;;8.57;100.0
34454;BME280;60061;52.080;5.312;2023-12-20T11:13:43;101362.0;;;8.55;100.0
34454;BME280;60061;52.080;5.312;2023-12-20T11:15:24;101367.0;;;8.56;100.0
34454;BME280;60061;52.080;5.312;2023-12-20T11:17:06;101363.0;;;8.65;100.0